sensor_id;sensor_type;location;lat;lon;timestamp;pressure;altitude;pressure_sealevel;temperature;humidity
22743;BME280;11538;48.884;8.696;2022-11-20T00:01:30;98253.44;;;6.57;100.00
22743;BME280;11538;48.884;8.696;2022-11-20T00:03:58;98251.31;;;6.54;100.00
22743;BME280;11538;48.884;8.696;2022-11-20T00:06:27;98248.88;;;6.52;100.00
22743;BME280;11538;48.884;8.696;2022-11-20T00:08:58;98246.19;;;6.52;100.00
22743;BME280;11538;48.884;8.696;2022-11-20T00:11:27;98249.13;;;6.56;100.00
22743;BME280;11538;48.884;8.696;2022-11-20T00:13:58;98255.88;;;6.53;100.00
22743;BME280;11538;48.884;8.696;2022-11-20T00:16:28;98262.34;;;6.52;100.00
22743;BME280;11538;48.884;8.696;2022-11-20T00:18:56;98255.16;;;6.48;100.00
22743;BME280;11538;48.884;8.696;2022-11-20T00:21:25;98256.22;;;6.47;100.00
22743;BME280;11538;48.884;8.696;2022-11-20T00:23:54;98258.09;;;6.46;100.00
22743;BME280;11538;48.884;8.696;2022-11-20T00:26:23;98260.28;;;6.44;100.00
22743;BME280;11538;48.884;8.696;2022-11-20T00:28:53;98266.81;;;6.38;100.00
22743;BME280;11538;48.884;8.696;2022-11-20T00:31:20;98264.47;;;6.31;100.00
22743;BME280;11538;48.884;8.696;2022-11-20T00:33:47;98266.34;;;6.31;100.00
22743;BME280;11538;48.884;8.696;2022-11-20T00:36:17;98262.03;;;6.29;100.00
22743;BME280;11538;48.884;8.696;2022-11-20T00:38:44;98269.03;;;6.31;100.00
22743;BME280;11538;48.884;8.696;2022-11-20T00:41:13;98266.66;;;6.29;100.00
22743;BME280;11538;48.884;8.696;2022-11-20T00:43:41;98266.66;;;6.29;100.00
22743;BME280;11538;48.884;8.696;2022-11-20T00:46:17;98263.09;;;6.34;100.00
22743;BME280;11538;48.884;8.696;2022-11-20T00:48:45;98269.44;;;6.43;100.00
22743;BME280;11538;48.884;8.696;2022-11-20T00:51:18;98267.56;;;6.43;100.00
22743;BME280;11538;48.884;8.696;2022-11-20T00:53:46;98269.97;;;6.45;100.00
22743;BME280;11538;48.884;8.696;2022-11-20T00:56:15;98272.09;;;6.48;100.00
22743;BME280;11538;48.884;8.696;2022-11-20T00:58:44;98265.09;;;6.47;100.00
22743;BME280;11538;48.884;8.696;2022-11-20T01:01:13;98266.75;;;6.43;100.00
22743;BME280;11538;48.884;8.696;2022-11-20T01:03:46;98266.75;;;6.43;100.00
22743;BME280;11538;48.884;8.696;2022-11-20T01:06:15;98259.75;;;6.42;100.00
22743;BME280;11538;48.884;8.696;2022-11-20T01:08:43;98255.19;;;6.42;100.00
22743;BME280;11538;48.884;8.696;2022-11-20T01:11:16;98262.19;;;6.43;100.00
22743;BME280;11538;48.884;8.696;2022-11-20T01:13:44;98256.56;;;6.40;100.00
22743;BME280;11538;48.884;8.696;2022-11-20T01:16:26;98259.50;;;6.43;100.00
22743;BME280;11538;48.884;8.696;2022-11-20T01:18:55;98254.63;;;6.46;100.00
22743;BME280;11538;48.884;8.696;2022-11-20T01:21:26;98259.44;;;6.49;100.00
22743;BME280;11538;48.884;8.696;2022-11-20T01:23:53;98264.53;;;6.50;100.00
22743;BME280;11538;48.884;8.696;2022-11-20T01:26:23;98259.19;;;6.45;100.00
22743;BME280;11538;48.884;8.696;2022-11-20T01:28:50;98253.06;;;6.39;100.00
22743;BME280;11538;48.884;8.696;2022-11-20T01:33:48;98259.34;;;6.29;100.00
22743;BME280;11538;48.884;8.696;2022-11-20T01:36:17;98261.22;;;6.34;100.00
22743;BME280;11538;48.884;8.696;2022-11-20T01:38:45;98260.34;;;6.39;100.00
22743;BME280;11538;48.884;8.696;2022-11-20T01:41:13;98268.38;;;6.44;100.00
22743;BME280;11538;48.884;8.696;2022-11-20T01:44:02;98265.09;;;6.47;100.00
22743;BME280;11538;48.884;8.696;2022-11-20T01:46:31;98265.41;;;6.46;100.00
22743;BME280;11538;48.884;8.696;2022-11-20T01:49:11;98256.50;;;6.45;100.00
22743;BME280;11538;48.884;8.696;2022-11-20T01:51:43;98259.13;;;6.50;100.00
22743;BME280;11538;48.884;8.696;2022-11-20T01:54:19;98256.00;;;6.67;100.00
22743;BME280;11538;48.884;8.696;2022-11-20T01:56:51;98257.72;;;6.82;100.00
22743;BME280;11538;48.884;8.696;2022-11-20T01:59:21;98256.00;;;6.92;100.00
22743;BME280;11538;48.884;8.696;2022-11-20T02:01:49;98253.25;;;6.97;100.00
22743;BME280;11538;48.884;8.696;2022-11-20T02:04:16;98252.31;;;7.07;100.00
22743;BME280;11538;48.884;8.696;2022-11-20T02:06:49;98254.94;;;7.12;100.00
22743;BME280;11538;48.884;8.696;2022-11-20T02:09:18;98258.13;;;7.14;100.00
22743;BME280;11538;48.884;8.696;2022-11-20T02:11:46;98254.84;;;7.17;100.00
22743;BME280;11538;48.884;8.696;2022-11-20T02:14:14;98251.31;;;7.22;100.00
22743;BME280;11538;48.884;8.696;2022-11-20T02:16:45;98251.31;;;7.22;100.00
22743;BME280;11538;48.884;8.696;2022-11-20T02:19:26;98251.38;;;7.16;100.00
22743;BME280;11538;48.884;8.696;2022-11-20T02:22:05;98261.59;;;7.20;100.00
22743;BME280;11538;48.884;8.696;2022-11-20T02:24:34;98259.41;;;7.22;100.00
22743;BME280;11538;48.884;8.696;2022-11-20T02:27:15;98255.88;;;7.21;100.00
22743;BME280;11538;48.884;8.696;2022-11-20T02:29:56;98259.59;;;7.25;100.00
22743;BME280;11538;48.884;8.696;2022-11-20T02:32:35;98256.06;;;7.30;100.00
22743;BME280;11538;48.884;8.696;2022-11-20T02:37:46;98262.25;;;7.30;100.00
22743;BME280;11538;48.884;8.696;2022-11-20T02:40:31;98269.47;;;7.35;100.00
22743;BME280;11538;48.884;8.696;2022-11-20T02:42:58;98267.06;;;7.34;100.00
22743;BME280;11538;48.884;8.696;2022-11-20T02:45:25;98265.47;;;7.32;100.00
22743;BME280;11538;48.884;8.696;2022-11-20T02:47:52;98270.88;;;7.32;100.00
22743;BME280;11538;48.884;8.696;2022-11-20T02:50:20;98270.88;;;7.32;100.00
22743;BME280;11538;48.884;8.696;2022-11-20T02:52:47;98268.09;;;7.38;100.00
22743;BME280;11538;48.884;8.696;2022-11-20T02:55:14;98261.88;;;7.37;100.00
22743;BME280;11538;48.884;8.696;2022-11-20T02:57:41;98266.19;;;7.38;100.00
22743;BME280;11538;48.884;8.696;2022-11-20T03:00:08;98256.50;;;7.37;100.00
22743;BME280;11538;48.884;8.696;2022-11-20T03:02:35;98250.31;;;7.37;100.00
22743;BME280;11538;48.884;8.696;2022-11-20T03:05:02;98255.47;;;7.33;100.00
22743;BME280;11538;48.884;8.696;2022-11-20T03:07:29;98266.25;;;7.33;100.00
22743;BME280;11538;48.884;8.696;2022-11-20T03:09:56;98262.78;;;7.32;100.00
22743;BME280;11538;48.884;8.696;2022-11-20T03:12:23;98269.25;;;7.31;100.00
22743;BME280;11538;48.884;8.696;2022-11-20T03:14:50;98268.44;;;7.31;100.00
22743;BME280;11538;48.884;8.696;2022-11-20T03:17:19;98259.84;;;7.29;100.00
22743;BME280;11538;48.884;8.696;2022-11-20T03:19:46;98252.84;;;7.28;100.00
22743;BME280;11538;48.884;8.696;2022-11-20T03:22:13;98260.13;;;7.27;100.00
22743;BME280;11538;48.884;8.696;2022-11-20T03:24:40;98267.41;;;7.27;100.00
22743;BME280;11538;48.884;8.696;2022-11-20T03:27:07;98257.22;;;7.24;100.00
22743;BME280;11538;48.884;8.696;2022-11-20T03:29:43;98254.00;;;7.22;100.00
22743;BME280;11538;48.884;8.696;2022-11-20T03:32:10;98256.19;;;7.20;100.00
22743;BME280;11538;48.884;8.696;2022-11-20T03:34:36;98256.25;;;7.14;100.00
22743;BME280;11538;48.884;8.696;2022-11-20T03:37:03;98258.88;;;7.20;100.00
22743;BME280;11538;48.884;8.696;2022-11-20T03:39:30;98253.78;;;7.18;100.00
22743;BME280;11538;48.884;8.696;2022-11-20T03:41:57;98250.56;;;7.16;100.00
22743;BME280;11538;48.884;8.696;2022-11-20T03:44:23;98252.97;;;7.17;100.00
22743;BME280;11538;48.884;8.696;2022-11-20T03:46:51;98260.19;;;7.22;100.00
22743;BME280;11538;48.884;8.696;2022-11-20T03:49:17;98257.28;;;7.19;100.00
22743;BME280;11538;48.884;8.696;2022-11-20T03:51:44;98254.00;;;7.22;100.00
22743;BME280;11538;48.884;8.696;2022-11-20T03:54:11;98258.00;;;7.24;100.00
22743;BME280;11538;48.884;8.696;2022-11-20T03:56:38;98261.00;;;7.23;100.00
22743;BME280;11538;48.884;8.696;2022-11-20T03:59:06;98252.03;;;7.27;100.00
22743;BME280;11538;48.884;8.696;2022-11-20T04:01:36;98255.81;;;7.26;100.00
22743;BME280;11538;48.884;8.696;2022-11-20T04:04:12;98254.72;;;7.27;100.00
22743;BME280;11538;48.884;8.696;2022-11-20T04:06:39;98257.13;;;7.29;100.00
22743;BME280;11538;48.884;8.696;2022-11-20T04:09:06;98255.53;;;7.28;100.00
22743;BME280;11538;48.884;8.696;2022-11-20T04:11:35;98257.13;;;7.29;100.00
22743;BME280;11538;48.884;8.696;2022-11-20T04:14:05;98252.25;;;7.31;100.00
22743;BME280;11538;48.884;8.696;2022-11-20T04:16:34;98262.47;;;7.34;100.00
22743;BME280;11538;48.884;8.696;2022-11-20T04:19:05;98247.59;;;7.37;100.00
22743;BME280;11538;48.884;8.696;2022-11-20T04:21:32;98243.31;;;7.36;100.00
22743;BME280;11538;48.884;8.696;2022-11-20T04:23:59;98244.09;;;7.36;100.00
22743;BME280;11538;48.884;8.696;2022-11-20T04:26:27;98244.69;;;7.33;100.00
22743;BME280;11538;48.884;8.696;2022-11-20T04:28:55;98242.28;;;7.31;100.00
22743;BME280;11538;48.884;8.696;2022-11-20T04:31:26;98238.50;;;7.32;100.00
22743;BME280;11538;48.884;8.696;2022-11-20T04:33:53;98236.88;;;7.31;100.00
22743;BME280;11538;48.884;8.696;2022-11-20T04:36:24;98232.28;;;7.32;100.00
22743;BME280;11538;48.884;8.696;2022-11-20T04:38:56;98233.59;;;7.35;100.00
22743;BME280;11538;48.884;8.696;2022-11-20T04:41:31;98229.59;;;7.32;100.00
22743;BME280;11538;48.884;8.696;2022-11-20T04:43:59;98227.69;;;7.32;100.00
22743;BME280;11538;48.884;8.696;2022-11-20T04:46:32;98225.28;;;7.31;100.00
22743;BME280;11538;48.884;8.696;2022-11-20T04:48:59;98230.09;;;7.34;100.00
22743;BME280;11538;48.884;8.696;2022-11-20T04:51:26;98223.09;;;7.33;100.00
22743;BME280;11538;48.884;8.696;2022-11-20T04:53:53;98218.22;;;7.35;100.00
22743;BME280;11538;48.884;8.696;2022-11-20T04:56:20;98225.13;;;7.41;100.00
22743;BME280;11538;48.884;8.696;2022-11-20T04:58:47;98221.94;;;7.39;100.00
22743;BME280;11538;48.884;8.696;2022-11-20T05:01:19;98219.75;;;7.41;100.00
22743;BME280;11538;48.884;8.696;2022-11-20T05:03:47;98217.03;;;7.41;100.00
22743;BME280;11538;48.884;8.696;2022-11-20T05:06:17;98224.03;;;7.42;100.00
22743;BME280;11538;48.884;8.696;2022-11-20T05:08:44;98224.03;;;7.42;100.00
22743;BME280;11538;48.884;8.696;2022-11-20T05:11:14;98221.34;;;7.42;100.00
22743;BME280;11538;48.884;8.696;2022-11-20T05:13:42;98222.94;;;7.43;100.00
22743;BME280;11538;48.884;8.696;2022-11-20T05:16:17;98221.84;;;7.44;100.00
22743;BME280;11538;48.884;8.696;2022-11-20T05:18:44;98223.84;;;7.39;100.00
22743;BME280;11538;48.884;8.696;2022-11-20T05:21:12;98229.44;;;7.42;100.00
22743;BME280;11538;48.884;8.696;2022-11-20T05:23:39;98230.25;;;7.43;100.00
22743;BME280;11538;48.884;8.696;2022-11-20T05:26:08;98224.34;;;7.41;100.00
22743;BME280;11538;48.884;8.696;2022-11-20T05:28:35;98225.13;;;7.41;100.00
22743;BME280;11538;48.884;8.696;2022-11-20T05:31:06;98231.63;;;7.40;100.00
22743;BME280;11538;48.884;8.696;2022-11-20T05:33:35;98222.44;;;7.41;100.00
22743;BME280;11538;48.884;8.696;2022-11-20T05:36:03;98228.34;;;7.43;100.00
22743;BME280;11538;48.884;8.696;2022-11-20T05:38:30;98224.03;;;7.42;100.00
22743;BME280;11538;48.884;8.696;2022-11-20T05:41:09;98222.44;;;7.41;100.00
22743;BME280;11538;48.884;8.696;2022-11-20T05:43:38;98219.22;;;7.39;100.00
22743;BME280;11538;48.884;8.696;2022-11-20T05:46:06;98220.31;;;7.38;100.00
22743;BME280;11538;48.884;8.696;2022-11-20T05:48:34;98217.34;;;7.40;100.00
22743;BME280;11538;48.884;8.696;2022-11-20T05:51:03;98217.63;;;7.38;100.00
22743;BME280;11538;48.884;8.696;2022-11-20T05:53:32;98217.84;;;7.42;100.00
22743;BME280;11538;48.884;8.696;2022-11-20T05:56:04;98219.75;;;7.41;100.00
22743;BME280;11538;48.884;8.696;2022-11-20T05:58:32;98209.75;;;7.42;100.00
22743;BME280;11538;48.884;8.696;2022-11-20T06:01:09;98212.47;;;7.42;100.00
22743;BME280;11538;48.884;8.696;2022-11-20T06:03:37;98218.94;;;7.41;100.00
22743;BME280;11538;48.884;8.696;2022-11-20T06:06:05;98211.38;;;7.43;100.00
22743;BME280;11538;48.884;8.696;2022-11-20T06:08:32;98219.47;;;7.43;100.00
22743;BME280;11538;48.884;8.696;2022-11-20T06:11:06;98220.25;;;7.43;100.00
22743;BME280;11538;48.884;8.696;2022-11-20T06:13:34;98223.75;;;7.44;100.00
22743;BME280;11538;48.884;8.696;2022-11-20T06:16:08;98217.28;;;7.45;100.00
22743;BME280;11538;48.884;8.696;2022-11-20T06:18:35;98228.56;;;7.47;100.00
22743;BME280;11538;48.884;8.696;2022-11-20T06:21:04;98218.56;;;7.47;100.00
22743;BME280;11538;48.884;8.696;2022-11-20T06:23:32;98222.88;;;7.49;100.00
22743;BME280;11538;48.884;8.696;2022-11-20T06:26:26;98218.78;;;7.51;100.00
22743;BME280;11538;48.884;8.696;2022-11-20T06:28:54;98223.09;;;7.52;100.00
22743;BME280;11538;48.884;8.696;2022-11-20T06:31:24;98222.00;;;7.53;100.00
22743;BME280;11538;48.884;8.696;2022-11-20T06:33:51;98223.88;;;7.53;100.00
22743;BME280;11538;48.884;8.696;2022-11-20T06:36:20;98227.16;;;7.50;100.00
22743;BME280;11538;48.884;8.696;2022-11-20T06:38:50;98230.38;;;7.52;100.00
22743;BME280;11538;48.884;8.696;2022-11-20T06:41:19;98223.38;;;7.51;100.00
22743;BME280;11538;48.884;8.696;2022-11-20T06:43:47;98223.38;;;7.51;100.00
22743;BME280;11538;48.884;8.696;2022-11-20T06:46:15;98224.38;;;7.55;100.00
22743;BME280;11538;48.884;8.696;2022-11-20T06:48:44;98227.91;;;7.55;100.00
22743;BME280;11538;48.884;8.696;2022-11-20T06:51:12;98219.00;;;7.55;100.00
22743;BME280;11538;48.884;8.696;2022-11-20T06:53:39;98224.31;;;7.60;100.00
22743;BME280;11538;48.884;8.696;2022-11-20T06:56:07;98220.25;;;7.63;100.00
22743;BME280;11538;48.884;8.696;2022-11-20T06:58:35;98227.59;;;7.57;100.00
22743;BME280;11538;48.884;8.696;2022-11-20T07:01:07;98239.81;;;7.54;100.00
22743;BME280;11538;48.884;8.696;2022-11-20T07:03:36;98234.41;;;7.54;100.00
22743;BME280;11538;48.884;8.696;2022-11-20T07:06:03;98241.69;;;7.54;100.00
22743;BME280;11538;48.884;8.696;2022-11-20T07:08:30;98240.59;;;7.55;100.00
22743;BME280;11538;48.884;8.696;2022-11-20T07:10:59;98251.38;;;7.55;100.00
22743;BME280;11538;48.884;8.696;2022-11-20T07:13:27;98246.56;;;7.52;100.00
22743;BME280;11538;48.884;8.696;2022-11-20T07:15:54;98248.16;;;7.53;100.00
22743;BME280;11538;48.884;8.696;2022-11-20T07:18:21;98246.06;;;7.50;100.00
22743;BME280;11538;48.884;8.696;2022-11-20T07:20:48;98248.16;;;7.53;100.00
22743;BME280;11538;48.884;8.696;2022-11-20T07:23:15;98256.28;;;7.53;100.00
22743;BME280;11538;48.884;8.696;2022-11-20T07:25:42;98258.25;;;7.47;100.00
22743;BME280;11538;48.884;8.696;2022-11-20T07:28:08;98257.75;;;7.45;100.00
22743;BME280;11538;48.884;8.696;2022-11-20T07:30:37;98256.72;;;7.41;100.00
22743;BME280;11538;48.884;8.696;2022-11-20T07:33:04;98252.63;;;7.43;100.00
22743;BME280;11538;48.884;8.696;2022-11-20T07:35:31;98263.34;;;7.49;100.00
22743;BME280;11538;48.884;8.696;2022-11-20T07:37:58;98253.38;;;7.49;100.00
22743;BME280;11538;48.884;8.696;2022-11-20T07:40:25;98258.47;;;7.51;100.00
22743;BME280;11538;48.884;8.696;2022-11-20T07:42:53;98260.38;;;7.50;100.00
22743;BME280;11538;48.884;8.696;2022-11-20T07:45:22;98262.25;;;7.50;100.00
22743;BME280;11538;48.884;8.696;2022-11-20T07:47:50;98261.16;;;7.51;100.00
22743;BME280;11538;48.884;8.696;2022-11-20T07:50:18;98254.38;;;7.53;100.00
22743;BME280;11538;48.884;8.696;2022-11-20T07:52:45;98264.59;;;7.56;100.00
22743;BME280;11538;48.884;8.696;2022-11-20T07:55:12;98260.81;;;7.57;100.00
22743;BME280;11538;48.884;8.696;2022-11-20T07:57:39;98267.56;;;7.55;100.00
22743;BME280;11538;48.884;8.696;2022-11-20T08:00:08;98260.56;;;7.54;100.00
22743;BME280;11538;48.884;8.696;2022-11-20T08:02:41;98267.06;;;7.53;100.00
22743;BME280;11538;48.884;8.696;2022-11-20T08:05:09;98269.75;;;7.53;100.00
22743;BME280;11538;48.884;8.696;2022-11-20T08:07:42;98279.19;;;7.55;100.00
22743;BME280;11538;48.884;8.696;2022-11-20T08:10:11;98275.16;;;7.53;100.00
22743;BME280;11538;48.884;8.696;2022-11-20T08:12:46;98272.47;;;7.53;100.00
22743;BME280;11538;48.884;8.696;2022-11-20T08:15:32;98272.91;;;7.60;100.00
22743;BME280;11538;48.884;8.696;2022-11-20T08:18:07;98280.72;;;7.61;100.00
22743;BME280;11538;48.884;8.696;2022-11-20T08:20:55;98282.00;;;7.64;100.00
22743;BME280;11538;48.884;8.696;2022-11-20T08:23:22;98290.94;;;7.65;100.00
22743;BME280;11538;48.884;8.696;2022-11-20T08:25:49;98283.25;;;7.72;100.00
22743;BME280;11538;48.884;8.696;2022-11-20T08:28:17;98287.56;;;7.73;100.00
22743;BME280;11538;48.884;8.696;2022-11-20T08:30:48;98280.06;;;7.70;100.00
22743;BME280;11538;48.884;8.696;2022-11-20T08:33:16;98295.34;;;7.74;100.00
22743;BME280;11538;48.884;8.696;2022-11-20T08:35:44;98292.44;;;7.71;100.00
22743;BME280;11538;48.884;8.696;2022-11-20T08:38:10;98291.44;;;7.67;100.00
22743;BME280;11538;48.884;8.696;2022-11-20T08:40:37;98298.06;;;7.74;100.00
22743;BME280;11538;48.884;8.696;2022-11-20T08:43:04;98296.38;;;7.79;100.00
22743;BME280;11538;48.884;8.696;2022-11-20T08:45:31;98297.69;;;7.81;100.00
22743;BME280;11538;48.884;8.696;2022-11-20T08:48:01;98303.09;;;7.81;100.00
22743;BME280;11538;48.884;8.696;2022-11-20T08:50:29;98301.50;;;7.80;100.00
22743;BME280;11538;48.884;8.696;2022-11-20T08:53:03;98302.88;;;7.78;100.00
22743;BME280;11538;48.884;8.696;2022-11-20T08:55:30;98304.72;;;7.82;100.00
22743;BME280;11538;48.884;8.696;2022-11-20T08:57:57;98312.56;;;7.79;100.00
22743;BME280;11538;48.884;8.696;2022-11-20T09:00:24;98313.59;;;7.83;100.00
22743;BME280;11538;48.884;8.696;2022-11-20T09:02:51;98320.00;;;7.87;100.00
22743;BME280;11538;48.884;8.696;2022-11-20T09:05:18;98321.41;;;7.84;100.00
22743;BME280;11538;48.884;8.696;2022-11-20T09:07:45;98330.59;;;7.83;100.00
22743;BME280;11538;48.884;8.696;2022-11-20T09:10:12;98321.09;;;7.86;100.00
22743;BME280;11538;48.884;8.696;2022-11-20T09:12:53;98328.69;;;7.84;100.00
22743;BME280;11538;48.884;8.696;2022-11-20T09:15:23;98334.41;;;7.82;100.00
22743;BME280;11538;48.884;8.696;2022-11-20T09:17:54;98329.88;;;7.78;100.00
22743;BME280;11538;48.884;8.696;2022-11-20T09:20:21;98334.25;;;7.73;100.00
22743;BME280;11538;48.884;8.696;2022-11-20T09:22:48;98331.34;;;7.70;100.00
22743;BME280;11538;48.884;8.696;2022-11-20T09:25:16;98343.44;;;7.72;100.00
22743;BME280;11538;48.884;8.696;2022-11-20T09:27:43;98333.97;;;7.75;100.00
22743;BME280;11538;48.884;8.696;2022-11-20T09:30:15;98345.28;;;7.77;100.00
22743;BME280;11538;48.884;8.696;2022-11-20T09:32:42;98343.44;;;7.72;100.00
22743;BME280;11538;48.884;8.696;2022-11-20T09:35:10;98346.97;;;7.73;100.00
22743;BME280;11538;48.884;8.696;2022-11-20T09:37:37;98356.44;;;7.70;100.00
22743;BME280;11538;48.884;8.696;2022-11-20T09:40:05;98354.09;;;7.64;100.00
22743;BME280;11538;48.884;8.696;2022-11-20T09:42:34;98351.97;;;7.60;100.00
22743;BME280;11538;48.884;8.696;2022-11-20T09:48:18;98353.56;;;7.42;100.00
22743;BME280;11538;48.884;8.696;2022-11-20T09:53:53;98355.88;;;7.30;100.00
22743;BME280;11538;48.884;8.696;2022-11-20T09:56:21;98362.28;;;7.34;100.00
22743;BME280;11538;48.884;8.696;2022-11-20T09:58:51;98373.59;;;7.36;100.00
22743;BME280;11538;48.884;8.696;2022-11-20T10:01:21;98372.56;;;7.32;100.00
22743;BME280;11538;48.884;8.696;2022-11-20T10:04:18;98355.88;;;7.30;100.00
22743;BME280;11538;48.884;8.696;2022-11-20T10:07:07;98360.16;;;7.31;100.00
22743;BME280;11538;48.884;8.696;2022-11-20T10:09:58;98354.53;;;7.27;100.00
22743;BME280;11538;48.884;8.696;2022-11-20T10:21:39;98353.78;;;7.46;100.00
22743;BME280;11538;48.884;8.696;2022-11-20T10:24:23;98352.19;;;7.45;100.00
22743;BME280;11538;48.884;8.696;2022-11-20T10:29:41;98347.50;;;7.51;100.00
22743;BME280;11538;48.884;8.696;2022-11-20T10:32:15;98350.97;;;7.56;100.00
22743;BME280;11538;48.884;8.696;2022-11-20T10:35:01;98349.28;;;7.60;100.00
22743;BME280;11538;48.884;8.696;2022-11-20T10:37:32;98347.97;;;7.58;100.00
22743;BME280;11538;48.884;8.696;2022-11-20T10:40:22;98351.75;;;7.57;100.00
22743;BME280;11538;48.884;8.696;2022-11-20T10:43:01;98344.75;;;7.56;100.00
22743;BME280;11538;48.884;8.696;2022-11-20T10:45:43;98332.72;;;7.67;100.00
22743;BME280;11538;48.884;8.696;2022-11-20T10:48:21;98339.50;;;7.84;100.00
22743;BME280;11538;48.884;8.696;2022-11-20T10:51:18;98337.97;;;7.97;100.00
22743;BME280;11538;48.884;8.696;2022-11-20T10:53:56;98337.56;;;8.23;100.00
22743;BME280;11538;48.884;8.696;2022-11-20T10:57:10;98338.72;;;8.36;100.00
22743;BME280;11538;48.884;8.696;2022-11-20T11:02:23;98332.72;;;8.72;100.00
22743;BME280;11538;48.884;8.696;2022-11-20T11:04:53;98326.13;;;8.92;100.00
22743;BME280;11538;48.884;8.696;2022-11-20T11:07:38;98320.41;;;9.21;100.00
22743;BME280;11538;48.884;8.696;2022-11-20T11:10:42;98314.81;;;9.32;100.00
22743;BME280;11538;48.884;8.696;2022-11-20T11:13:22;98310.94;;;9.61;100.00
22743;BME280;11538;48.884;8.696;2022-11-20T11:15:49;98310.81;;;9.66;100.00
22743;BME280;11538;48.884;8.696;2022-11-20T11:18:27;98305.28;;;9.71;99.19
22743;BME280;11538;48.884;8.696;2022-11-20T11:20:57;98296.06;;;9.72;98.77
22743;BME280;11538;48.884;8.696;2022-11-20T11:23:33;98290.28;;;9.65;98.78
22743;BME280;11538;48.884;8.696;2022-11-20T11:26:03;98293.66;;;9.71;96.28
22743;BME280;11538;48.884;8.696;2022-11-20T11:28:33;98281.81;;;9.66;96.36
22743;BME280;11538;48.884;8.696;2022-11-20T11:31:06;98285.16;;;9.86;94.69
22743;BME280;11538;48.884;8.696;2022-11-20T11:33:38;98279.44;;;10.10;92.38
22743;BME280;11538;48.884;8.696;2022-11-20T11:36:18;98281.41;;;10.19;91.39
22743;BME280;11538;48.884;8.696;2022-11-20T11:38:54;98269.16;;;10.44;88.96
22743;BME280;11538;48.884;8.696;2022-11-20T11:41:24;98269.78;;;10.81;87.67
22743;BME280;11538;48.884;8.696;2022-11-20T11:43:57;98269.53;;;11.09;84.71
22743;BME280;11538;48.884;8.696;2022-11-20T11:47:01;98261.75;;;11.25;82.55
22743;BME280;11538;48.884;8.696;2022-11-20T11:49:30;98252.19;;;11.28;82.54
22743;BME280;11538;48.884;8.696;2022-11-20T11:55:00;98261.94;;;11.38;80.26
22743;BME280;11538;48.884;8.696;2022-11-20T11:57:55;98259.34;;;11.15;79.00
22743;BME280;11538;48.884;8.696;2022-11-20T12:00:26;98254.28;;;11.31;79.73
22743;BME280;11538;48.884;8.696;2022-11-20T12:05:28;98244.38;;;11.62;77.11
22743;BME280;11538;48.884;8.696;2022-11-20T12:08:05;98248.03;;;11.66;75.99
22743;BME280;11538;48.884;8.696;2022-11-20T12:11:03;98242.31;;;11.50;74.63
22743;BME280;11538;48.884;8.696;2022-11-20T12:13:54;98255.06;;;11.67;75.33
22743;BME280;11538;48.884;8.696;2022-11-20T12:16:22;98247.91;;;11.80;72.18
22743;BME280;11538;48.884;8.696;2022-11-20T12:18:53;98240.38;;;11.68;73.71
22743;BME280;11538;48.884;8.696;2022-11-20T12:21:37;98234.63;;;11.69;73.65
22743;BME280;11538;48.884;8.696;2022-11-20T12:30:01;98253.66;;;11.69;72.12
22743;BME280;11538;48.884;8.696;2022-11-20T12:33:07;98247.09;;;11.62;72.76
22743;BME280;11538;48.884;8.696;2022-11-20T12:38:32;98254.81;;;10.93;72.87
22743;BME280;11538;48.884;8.696;2022-11-20T12:44:33;98243.91;;;11.33;71.26
22743;BME280;11538;48.884;8.696;2022-11-20T12:53:54;98235.94;;;10.07;77.73
22743;BME280;11538;48.884;8.696;2022-11-20T12:59:27;98240.34;;;9.57;79.07
22743;BME280;11538;48.884;8.696;2022-11-20T13:05:19;98245.00;;;9.43;82.13
22743;BME280;11538;48.884;8.696;2022-11-20T13:07:50;98240.63;;;9.33;81.78
22743;BME280;11538;48.884;8.696;2022-11-20T13:10:33;98236.22;;;9.37;83.65
22743;BME280;11538;48.884;8.696;2022-11-20T13:13:17;98240.91;;;9.31;83.70
22743;BME280;11538;48.884;8.696;2022-11-20T13:16:07;98226.09;;;9.29;82.85
22743;BME280;11538;48.884;8.696;2022-11-20T13:18:46;98228.69;;;9.34;83.22
22743;BME280;11538;48.884;8.696;2022-11-20T13:21:18;98236.09;;;9.42;82.88
22743;BME280;11538;48.884;8.696;2022-11-20T13:24:07;98222.66;;;9.37;80.60
22743;BME280;11538;48.884;8.696;2022-11-20T13:26:46;98220.97;;;9.41;79.07
22743;BME280;11538;48.884;8.696;2022-11-20T13:29:18;98217.88;;;9.34;78.84
22743;BME280;11538;48.884;8.696;2022-11-20T13:31:47;98216.16;;;9.38;79.28
22743;BME280;11538;48.884;8.696;2022-11-20T13:34:27;98212.22;;;9.44;78.67
22743;BME280;11538;48.884;8.696;2022-11-20T13:36:57;98210.63;;;9.43;77.81
22743;BME280;11538;48.884;8.696;2022-11-20T13:42:20;98217.75;;;9.39;76.03
22743;BME280;11538;48.884;8.696;2022-11-20T13:45:01;98204.34;;;9.34;76.24
22743;BME280;11538;48.884;8.696;2022-11-20T13:47:48;98217.88;;;9.34;76.11
22743;BME280;11538;48.884;8.696;2022-11-20T13:50:15;98209.25;;;9.32;76.54
22743;BME280;11538;48.884;8.696;2022-11-20T13:52:49;98208.28;;;9.28;76.39
22743;BME280;11538;48.884;8.696;2022-11-20T13:55:37;98207.75;;;9.26;75.76
22743;BME280;11538;48.884;8.696;2022-11-20T14:01:15;98201.94;;;9.18;75.85
22743;BME280;11538;48.884;8.696;2022-11-20T14:03:43;98209.56;;;9.16;76.77
22743;BME280;11538;48.884;8.696;2022-11-20T14:06:32;98193.94;;;9.13;76.17
22743;BME280;11538;48.884;8.696;2022-11-20T14:09:01;98202.66;;;9.10;76.74
22743;BME280;11538;48.884;8.696;2022-11-20T14:11:34;98198.38;;;9.09;77.42
22743;BME280;11538;48.884;8.696;2022-11-20T14:14:21;98194.06;;;9.08;77.15
22743;BME280;11538;48.884;8.696;2022-11-20T14:17:40;98185.78;;;9.04;77.75
22743;BME280;11538;48.884;8.696;2022-11-20T14:20:47;98186.88;;;8.89;77.74
22743;BME280;11538;48.884;8.696;2022-11-20T14:23:34;98186.00;;;8.94;78.27
22743;BME280;11538;48.884;8.696;2022-11-20T14:26:08;98177.88;;;8.94;79.48
22743;BME280;11538;48.884;8.696;2022-11-20T14:29:01;98174.19;;;8.90;78.51
22743;BME280;11538;48.884;8.696;2022-11-20T14:31:35;98168.56;;;8.86;78.74